Time;durP1;ratioP1;P1;durP2;ratioP2;P2;SDS_P1;SDS_P2;PMS_P1;PMS_P2;Temp;Humidity;BMP_temperature;BMP_pressure;BME280_temperature;BME280_humidity;BME280_pressure;Samples;Min_cycle;Max_cycle;Signal;HPM_P1;HPM_P2
2023/05/08 00:01:05;;;;;;;0.00;0.00;;;15.30;99.90;;;;;;5093032;28;20265;-62
2023/05/08 00:03:30;;;;;;;0.00;0.00;;;15.30;99.90;;;;;;5092372;28;20502;-62
2023/05/08 00:05:56;;;;;;;0.10;0.10;;;15.30;99.90;;;;;;5092422;28;20181;-62
2023/05/08 00:08:21;;;;;;;0.00;0.00;;;15.30;99.90;;;;;;5092548;28;20180;-62
2023/05/08 00:10:47;;;;;;;0.00;0.00;;;15.30;99.90;;;;;;5092541;28;20176;-62
2023/05/08 00:13:13;;;;;;;0.00;0.00;;;15.20;99.90;;;;;;5092643;28;20176;-62
2023/05/08 00:15:38;;;;;;;0.00;0.00;;;15.30;99.90;;;;;;5092650;28;20574;-62
2023/05/08 00:18:04;;;;;;;0.40;0.40;;;15.20;99.90;;;;;;5092104;28;20188;-62
2023/05/08 00:20:30;;;;;;;0.63;0.63;;;15.30;99.90;;;;;;5092345;28;20180;-62
2023/05/08 00:22:56;;;;;;;0.00;0.00;;;15.30;99.90;;;;;;5092209;28;20168;-62
2023/05/08 00:25:22;;;;;;;0.00;0.00;;;15.30;99.90;;;;;;5092527;28;20206;-62
2023/05/08 00:27:47;;;;;;;0.00;0.00;;;15.30;99.90;;;;;;5091526;28;20604;-62
2023/05/08 00:30:13;;;;;;;0.10;0.10;;;15.30;99.90;;;;;;5092213;28;20184;-63
2023/05/08 00:32:39;;;;;;;0.00;0.00;;;15.30;99.90;;;;;;5092366;28;20203;-62
2023/05/08 00:35:04;;;;;;;0.00;0.00;;;15.30;99.90;;;;;;5092040;28;20273;-62
2023/05/08 00:37:30;;;;;;;0.00;0.00;;;15.30;99.90;;;;;;5092170;28;20176;-62
2023/05/08 00:39:56;;;;;;;0.00;0.00;;;15.30;99.90;;;;;;5091777;28;20164;-62
2023/05/08 00:42:21;;;;;;;0.00;0.00;;;15.30;99.90;;;;;;5091902;28;20228;-62
2023/05/08 00:44:47;;;;;;;0.00;0.00;;;15.30;99.90;;;;;;5091901;28;20228;-62
2023/05/08 00:47:13;;;;;;;0.00;0.00;;;15.40;99.90;;;;;;5091848;28;20646;-62
2023/05/08 00:49:38;;;;;;;0.00;0.00;;;15.30;99.90;;;;;;5091886;28;20258;-62
2023/05/08 00:52:07;;;;;;;0.00;0.00;;;15.40;99.90;;;;;;5091672;28;21164;-62
2023/05/08 00:54:35;;;;;;;0.00;0.00;;;15.40;99.90;;;;;;5091604;28;20191;-61
2023/05/08 00:57:01;;;;;;;0.00;0.00;;;15.40;99.90;;;;;;5091489;28;20751;-62
2023/05/08 00:59:27;;;;;;;0.22;0.22;;;15.40;99.90;;;;;;5091269;28;20513;-62
2023/05/08 01:01:53;;;;;;;0.00;0.00;;;15.40;99.90;;;;;;5091674;28;20188;-62
2023/05/08 01:04:23;;;;;;;0.30;0.30;;;15.40;99.90;;;;;;5091736;28;20710;-62
2023/05/08 01:06:48;;;;;;;0.00;0.00;;;15.40;99.90;;;;;;5091594;28;20755;-62
2023/05/08 01:09:14;;;;;;;0.00;0.00;;;15.40;99.90;;;;;;5091596;28;20176;-61
2023/05/08 01:11:54;;;;;;;0.00;0.00;;;15.40;99.90;;;;;;5091489;28;20565;-61
2023/05/08 01:14:48;;;;;;;0.20;0.20;;;15.40;99.90;;;;;;5091676;28;20180;-62
2023/05/08 01:17:26;;;;;;;0.00;0.00;;;15.40;99.90;;;;;;5091571;28;20229;-62
2023/05/08 01:20:11;;;;;;;0.55;0.38;;;15.40;99.90;;;;;;5091115;28;20179;-62
2023/05/08 01:23:01;;;;;;;0.00;0.00;;;15.40;99.90;;;;;;5091310;28;20229;-61
2023/05/08 01:25:46;;;;;;;0.00;0.00;;;15.40;99.90;;;;;;5091409;28;20200;-62
2023/05/08 01:28:17;;;;;;;0.00;0.00;;;15.40;99.90;;;;;;5090774;28;20191;-62
2023/05/08 01:31:20;;;;;;;0.00;0.00;;;15.40;99.90;;;;;;5090752;28;20180;-62
2023/05/08 01:33:48;;;;;;;0.00;0.00;;;15.40;99.90;;;;;;5080436;28;20204;-62
2023/05/08 01:36:30;;;;;;;0.00;0.00;;;15.40;99.90;;;;;;5090964;28;20543;-62
2023/05/08 01:39:02;;;;;;;0.00;0.00;;;15.40;99.90;;;;;;5092726;28;20171;-62
2023/05/08 01:41:30;;;;;;;0.00;0.00;;;15.40;99.90;;;;;;5098243;28;20171;-62
2023/05/08 01:44:08;;;;;;;0.00;0.00;;;15.30;99.90;;;;;;5098053;28;20589;-62
2023/05/08 01:46:33;;;;;;;0.00;0.00;;;15.40;99.90;;;;;;5098118;28;20175;-62
2023/05/08 01:49:07;;;;;;;0.00;0.00;;;15.40;99.90;;;;;;5098031;28;20673;-62
2023/05/08 01:51:42;;;;;;;0.00;0.00;;;15.30;99.90;;;;;;5098067;28;20180;-62
2023/05/08 01:54:11;;;;;;;0.00;0.00;;;15.30;99.90;;;;;;5098100;28;20155;-63
2023/05/08 01:56:37;;;;;;;0.00;0.00;;;15.30;99.90;;;;;;5098021;28;20243;-62
2023/05/08 01:59:05;;;;;;;0.00;0.00;;;15.30;99.90;;;;;;5097913;28;20179;-62
2023/05/08 02:01:32;;;;;;;0.00;0.00;;;15.30;99.90;;;;;;5097812;28;20179;-62
2023/05/08 02:03:59;;;;;;;0.00;0.00;;;15.30;99.90;;;;;;5097850;28;20176;-62
2023/05/08 02:06:27;;;;;;;0.00;0.00;;;15.30;99.90;;;;;;5097820;28;20176;-62
2023/05/08 02:08:54;;;;;;;0.10;0.10;;;15.30;99.90;;;;;;5097796;28;20176;-62
2023/05/08 02:11:23;;;;;;;0.00;0.00;;;15.30;99.90;;;;;;5097918;28;20245;-63
2023/05/08 02:13:50;;;;;;;0.00;0.00;;;15.30;99.90;;;;;;5097681;28;20591;-63
2023/05/08 02:16:17;;;;;;;0.00;0.00;;;15.30;99.90;;;;;;5097637;28;20208;-62
2023/05/08 02:18:49;;;;;;;0.00;0.00;;;15.20;99.90;;;;;;5097772;28;20172;-62
2023/05/08 02:21:17;;;;;;;0.00;0.00;;;15.20;99.90;;;;;;5097592;28;20179;-62
2023/05/08 02:23:44;;;;;;;0.10;0.10;;;15.20;99.90;;;;;;5097499;28;20310;-62
2023/05/08 02:26:12;;;;;;;0.10;0.10;;;15.20;99.90;;;;;;5097318;28;20229;-62
2023/05/08 02:28:40;;;;;;;0.03;0.03;;;15.20;99.90;;;;;;5097503;28;20176;-62
2023/05/08 02:31:07;;;;;;;0.30;0.30;;;15.20;99.90;;;;;;5097438;28;20180;-62
2023/05/08 02:33:32;;;;;;;0.05;0.05;;;15.20;99.90;;;;;;5097471;28;20180;-62
2023/05/08 02:35:59;;;;;;;0.43;0.43;;;15.20;99.90;;;;;;5097179;28;20220;-62
2023/05/08 02:38:26;;;;;;;0.00;0.00;;;15.20;99.90;;;;;;5097591;28;20183;-62
2023/05/08 02:40:59;;;;;;;0.10;0.10;;;15.20;99.90;;;;;;5097408;28;20634;-62
2023/05/08 02:43:25;;;;;;;0.10;0.10;;;15.20;99.90;;;;;;5097158;28;20186;-62
2023/05/08 02:46:09;;;;;;;0.00;0.00;;;15.20;99.90;;;;;;5097320;28;20526;-62
2023/05/08 02:48:49;;;;;;;0.00;0.00;;;15.10;99.90;;;;;;5097447;28;20176;-62
2023/05/08 02:51:28;;;;;;;0.00;0.00;;;15.10;99.90;;;;;;5094657;28;20541;-62
2023/05/08 02:53:58;;;;;;;0.00;0.00;;;15.10;99.90;;;;;;5094493;28;20176;-62
2023/05/08 02:56:28;;;;;;;0.00;0.00;;;15.10;99.90;;;;;;5094483;28;20255;-62
2023/05/08 02:59:26;;;;;;;0.10;0.10;;;15.00;99.90;;;;;;5094311;28;20164;-62
2023/05/08 03:02:09;;;;;;;0.00;0.00;;;15.10;99.90;;;;;;5078431;28;20180;-62
2023/05/08 03:04:40;;;;;;;0.00;0.00;;;15.10;99.90;;;;;;5094295;28;20168;-62
2023/05/08 03:07:05;;;;;;;0.00;0.00;;;15.10;99.90;;;;;;5093020;28;20620;-62
2023/05/08 03:09:39;;;;;;;0.00;0.00;;;15.10;99.90;;;;;;5094123;28;20263;-62
2023/05/08 03:12:09;;;;;;;0.00;0.00;;;15.10;99.90;;;;;;5093981;28;20168;-63
2023/05/08 03:14:41;;;;;;;0.00;0.00;;;15.20;99.90;;;;;;5093974;28;20234;-61
2023/05/08 03:17:11;;;;;;;0.00;0.00;;;15.20;99.90;;;;;;5093537;28;20191;-61
2023/05/08 03:19:39;;;;;;;0.00;0.00;;;15.20;99.90;;;;;;5093608;28;20179;-62
2023/05/08 03:22:06;;;;;;;0.00;0.00;;;15.10;99.90;;;;;;5093596;28;20183;-61
2023/05/08 03:24:35;;;;;;;0.00;0.00;;;15.10;99.90;;;;;;5093368;28;20212;-61
2023/05/08 03:27:02;;;;;;;0.20;0.20;;;15.10;99.90;;;;;;5093636;28;20211;-62
2023/05/08 03:29:29;;;;;;;0.20;0.20;;;15.10;99.90;;;;;;5093001;28;20557;-61
2023/05/08 03:31:57;;;;;;;0.00;0.00;;;15.10;99.90;;;;;;5093643;28;20270;-61
2023/05/08 03:34:23;;;;;;;0.00;0.00;;;15.10;99.90;;;;;;5093258;28;20229;-61
2023/05/08 03:36:50;;;;;;;0.00;0.00;;;15.20;99.90;;;;;;5093391;28;20239;-61
2023/05/08 03:39:15;;;;;;;0.00;0.00;;;15.20;99.90;;;;;;5093019;28;20180;-61
2023/05/08 03:41:41;;;;;;;0.20;0.20;;;15.20;99.90;;;;;;5092835;28;20669;-60
2023/05/08 03:44:07;;;;;;;0.00;0.00;;;15.10;99.90;;;;;;5093173;28;20173;-59
2023/05/08 03:46:34;;;;;;;0.00;0.00;;;15.10;99.90;;;;;;5093294;28;20168;-60
2023/05/08 03:49:03;;;;;;;0.10;0.10;;;15.10;99.90;;;;;;5093204;28;20184;-61
2023/05/08 03:51:30;;;;;;;0.10;0.10;;;15.10;99.90;;;;;;5081258;28;20260;-60
2023/05/08 03:53:56;;;;;;;0.40;0.20;;;15.10;99.90;;;;;;5092156;28;20176;-60
2023/05/08 03:56:21;;;;;;;0.00;0.00;;;15.10;99.90;;;;;;5093208;28;20223;-60
2023/05/08 03:59:13;;;;;;;0.00;0.00;;;15.10;99.90;;;;;;5092754;28;20639;-59
2023/05/08 04:01:48;;;;;;;0.13;0.13;;;15.10;99.90;;;;;;5092934;28;20180;-60
2023/05/08 04:04:24;;;;;;;0.25;0.25;;;15.10;99.90;;;;;;5092964;28;20159;-61
2023/05/08 04:07:02;;;;;;;0.00;0.00;;;15.00;99.90;;;;;;5092871;28;20176;-61
2023/05/08 04:09:43;;;;;;;0.00;0.00;;;15.00;99.90;;;;;;5092461;28;20510;-61
2023/05/08 04:12:16;;;;;;;0.00;0.00;;;15.00;99.90;;;;;;5092337;28;20176;-61
2023/05/08 04:14:49;;;;;;;0.43;0.43;;;15.00;99.90;;;;;;5092879;28;20190;-61
2023/05/08 04:17:32;;;;;;;0.00;0.00;;;15.00;99.90;;;;;;5092539;28;20180;-61
2023/05/08 04:20:01;;;;;;;0.00;0.00;;;15.00;99.90;;;;;;5074537;28;20187;-61
2023/05/08 04:22:28;;;;;;;0.00;0.00;;;15.00;99.90;;;;;;5092093;28;20179;-61
2023/05/08 04:24:56;;;;;;;0.15;0.15;;;15.00;99.90;;;;;;5091701;28;20231;-62
2023/05/08 04:27:23;;;;;;;0.00;0.00;;;15.10;99.90;;;;;;5091978;28;20536;-61
2023/05/08 04:29:48;;;;;;;0.20;0.20;;;15.10;99.90;;;;;;5092192;28;20175;-61
2023/05/08 04:32:15;;;;;;;0.00;0.00;;;15.10;99.90;;;;;;5091880;28;20872;-61
2023/05/08 04:34:40;;;;;;;0.15;0.15;;;15.20;99.90;;;;;;5091866;28;20164;-61
2023/05/08 04:37:07;;;;;;;0.00;0.00;;;15.20;99.90;;;;;;5091819;28;20263;-61
2023/05/08 04:39:32;;;;;;;0.10;0.10;;;15.20;99.90;;;;;;5092032;28;20229;-61
2023/05/08 04:42:02;;;;;;;0.10;0.10;;;15.20;99.90;;;;;;5091800;28;20183;-61
2023/05/08 04:44:28;;;;;;;0.17;0.17;;;15.20;99.90;;;;;;5091915;28;20180;-62
2023/05/08 04:46:54;;;;;;;0.03;0.03;;;15.30;99.90;;;;;;5091711;28;20183;-62
2023/05/08 04:49:19;;;;;;;0.00;0.00;;;15.30;99.90;;;;;;5091840;28;20180;-61
2023/05/08 04:51:45;;;;;;;0.17;0.17;;;15.30;99.90;;;;;;5091784;28;20164;-61
2023/05/08 04:54:10;;;;;;;0.00;0.00;;;15.30;99.90;;;;;;5091444;28;20183;-61
2023/05/08 04:56:36;;;;;;;0.00;0.00;;;15.30;99.90;;;;;;5091934;28;20683;-61
2023/05/08 04:59:01;;;;;;;0.10;0.10;;;15.40;99.90;;;;;;5091448;28;20200;-62
2023/05/08 05:01:27;;;;;;;0.00;0.00;;;15.40;99.90;;;;;;5091444;28;20507;-62
2023/05/08 05:03:52;;;;;;;0.00;0.00;;;15.40;99.90;;;;;;5091396;28;20179;-62
2023/05/08 05:06:18;;;;;;;0.00;0.00;;;15.40;99.90;;;;;;5091384;28;20169;-61
2023/05/08 05:08:43;;;;;;;0.00;0.00;;;15.40;99.90;;;;;;5091366;28;20172;-62
2023/05/08 05:11:09;;;;;;;0.00;0.00;;;15.40;99.90;;;;;;5091089;28;20176;-61
2023/05/08 05:13:35;;;;;;;0.00;0.00;;;15.50;99.90;;;;;;5090846;28;20179;-62
2023/05/08 05:16:00;;;;;;;0.00;0.00;;;15.50;99.90;;;;;;5091016;28;20216;-62
2023/05/08 05:18:26;;;;;;;0.00;0.00;;;15.50;99.90;;;;;;5091425;28;20176;-62
2023/05/08 05:20:51;;;;;;;0.00;0.00;;;15.50;99.90;;;;;;5091095;28;20172;-62
2023/05/08 05:23:17;;;;;;;0.03;0.03;;;15.50;99.90;;;;;;5090959;28;20575;-61
2023/05/08 05:25:42;;;;;;;0.00;0.00;;;15.50;99.90;;;;;;5091085;28;20211;-61
2023/05/08 05:28:08;;;;;;;0.08;0.08;;;15.60;99.90;;;;;;5090807;28;20175;-62
2023/05/08 05:30:34;;;;;;;0.25;0.20;;;15.60;99.90;;;;;;5090953;28;20179;-62
2023/05/08 05:32:59;;;;;;;0.00;0.00;;;15.60;99.90;;;;;;5089670;28;20593;-62
2023/05/08 05:35:25;;;;;;;0.00;0.00;;;15.70;99.90;;;;;;5090919;28;20204;-62
2023/05/08 05:37:50;;;;;;;0.00;0.00;;;15.60;99.90;;;;;;5090702;28;20183;-61
2023/05/08 05:40:16;;;;;;;0.00;0.00;;;15.60;99.90;;;;;;5090786;28;20685;-62
2023/05/08 05:42:47;;;;;;;0.00;0.00;;;15.60;99.90;;;;;;5090920;28;20525;-62
2023/05/08 05:45:13;;;;;;;0.17;0.17;;;15.60;99.90;;;;;;5090723;28;20554;-62
2023/05/08 05:47:43;;;;;;;0.00;0.00;;;15.60;99.90;;;;;;5090959;28;20168;-62
2023/05/08 05:50:09;;;;;;;0.00;0.00;;;15.60;99.90;;;;;;5090681;28;20175;-62
2023/05/08 05:52:35;;;;;;;0.00;0.00;;;15.50;99.90;;;;;;5090900;28;20514;-62
2023/05/08 05:55:00;;;;;;;0.00;0.00;;;15.50;99.90;;;;;;5090573;28;20290;-62
2023/05/08 05:57:26;;;;;;;0.10;0.10;;;15.50;99.90;;;;;;5090938;28;20179;-62
2023/05/08 05:59:51;;;;;;;0.10;0.10;;;15.50;99.90;;;;;;5090701;28;20160;-62
2023/05/08 06:02:19;;;;;;;0.00;0.00;;;15.50;99.90;;;;;;5090777;28;20538;-62
2023/05/08 06:04:44;;;;;;;0.00;0.00;;;15.50;99.90;;;;;;5090943;28;20187;-62
2023/05/08 06:07:10;;;;;;;0.17;0.17;;;15.50;99.90;;;;;;5090502;28;20598;-62
2023/05/08 06:09:35;;;;;;;0.00;0.00;;;15.50;99.90;;;;;;5090832;28;20169;-61
2023/05/08 06:12:01;;;;;;;0.10;0.10;;;15.50;99.90;;;;;;5090796;28;20160;-61
2023/05/08 06:14:26;;;;;;;0.00;0.00;;;15.60;99.90;;;;;;5090682;28;20624;-62
2023/05/08 06:16:52;;;;;;;0.00;0.00;;;15.60;99.90;;;;;;5090569;28;20212;-62
2023/05/08 06:19:17;;;;;;;0.00;0.00;;;15.60;99.90;;;;;;5090526;28;20199;-62
2023/05/08 06:21:43;;;;;;;0.00;0.00;;;15.60;99.90;;;;;;5090920;28;20164;-62
2023/05/08 06:24:08;;;;;;;0.00;0.00;;;15.60;99.90;;;;;;5090494;28;20228;-62
2023/05/08 06:26:34;;;;;;;0.00;0.00;;;15.50;99.90;;;;;;5092476;28;20171;-62
2023/05/08 06:29:00;;;;;;;0.00;0.00;;;15.60;99.90;;;;;;5094643;28;20168;-61
2023/05/08 06:31:26;;;;;;;0.00;0.00;;;15.60;99.90;;;;;;5094658;28;20555;-62
2023/05/08 06:33:51;;;;;;;0.00;0.00;;;15.60;99.90;;;;;;5094460;28;20168;-62
2023/05/08 06:36:17;;;;;;;0.00;0.00;;;15.60;99.90;;;;;;5094390;28;20686;-62
2023/05/08 06:38:42;;;;;;;0.00;0.00;;;15.60;99.90;;;;;;5093300;28;20183;-62
2023/05/08 06:41:08;;;;;;;0.00;0.00;;;15.60;99.90;;;;;;5094389;28;20176;-62
2023/05/08 06:43:33;;;;;;;0.15;0.15;;;15.60;99.90;;;;;;5094395;28;20179;-61
2023/05/08 06:45:59;;;;;;;0.00;0.00;;;15.60;99.90;;;;;;5094296;28;20169;-62
2023/05/08 06:48:27;;;;;;;0.00;0.00;;;15.70;99.90;;;;;;5094478;28;20172;-62
2023/05/08 06:50:53;;;;;;;0.32;0.32;;;15.70;99.90;;;;;;5094175;28;20207;-61
2023/05/08 06:53:19;;;;;;;0.00;0.00;;;15.70;99.90;;;;;;5094301;28;20200;-62
2023/05/08 06:55:44;;;;;;;0.00;0.00;;;15.70;99.90;;;;;;5094193;28;20788;-63
2023/05/08 06:58:10;;;;;;;0.00;0.00;;;15.70;99.90;;;;;;5094160;28;20183;-62
2023/05/08 07:00:35;;;;;;;0.00;0.00;;;15.60;99.90;;;;;;5094186;28;20180;-62
2023/05/08 07:03:01;;;;;;;0.00;0.00;;;15.60;99.90;;;;;;5094187;28;20176;-62
2023/05/08 07:05:27;;;;;;;0.00;0.00;;;15.50;99.90;;;;;;5094290;28;20715;-62
2023/05/08 07:07:55;;;;;;;0.00;0.00;;;15.50;99.90;;;;;;5093991;28;20176;-61
2023/05/08 07:10:21;;;;;;;0.00;0.00;;;15.50;99.90;;;;;;5094066;28;20176;-61
2023/05/08 07:12:50;;;;;;;0.00;0.00;;;15.50;99.90;;;;;;5094049;28;20647;-61
2023/05/08 07:15:16;;;;;;;0.00;0.00;;;15.50;99.90;;;;;;5093806;28;20223;-62
2023/05/08 07:17:41;;;;;;;0.00;0.00;;;15.60;99.90;;;;;;5094032;28;20176;-61
2023/05/08 07:20:07;;;;;;;0.00;0.00;;;15.60;99.90;;;;;;5093897;28;20168;-62
2023/05/08 07:22:33;;;;;;;0.00;0.00;;;15.60;99.90;;;;;;5093826;28;20258;-61
2023/05/08 07:24:59;;;;;;;0.00;0.00;;;15.60;99.90;;;;;;5093571;28;20219;-61
2023/05/08 07:27:26;;;;;;;0.05;0.05;;;15.60;99.90;;;;;;5093755;28;20227;-61
2023/05/08 07:29:51;;;;;;;0.00;0.00;;;15.60;99.90;;;;;;5093644;28;20200;-61
2023/05/08 07:32:17;;;;;;;0.00;0.00;;;15.60;99.90;;;;;;5093612;28;20806;-61
2023/05/08 07:34:42;;;;;;;0.10;0.10;;;15.60;99.90;;;;;;5093657;28;20172;-61
2023/05/08 07:37:08;;;;;;;0.00;0.00;;;15.70;99.90;;;;;;5093047;28;20188;-61
2023/05/08 07:39:34;;;;;;;0.05;0.05;;;15.70;99.90;;;;;;5093510;28;20176;-62
2023/05/08 07:42:00;;;;;;;0.00;0.00;;;15.80;99.90;;;;;;5093480;28;20180;-61
2023/05/08 07:44:25;;;;;;;0.00;0.00;;;15.90;99.90;;;;;;5093447;28;20175;-61
2023/05/08 07:46:51;;;;;;;0.00;0.00;;;15.90;99.90;;;;;;5093194;28;20180;-62
2023/05/08 07:49:17;;;;;;;0.00;0.00;;;16.00;99.90;;;;;;5093253;28;20214;-62
2023/05/08 07:51:42;;;;;;;0.00;0.00;;;16.00;99.90;;;;;;5093252;28;20177;-62
2023/05/08 07:54:08;;;;;;;0.00;0.00;;;16.00;99.90;;;;;;5093210;28;20591;-62
2023/05/08 07:56:33;;;;;;;0.00;0.00;;;16.10;99.90;;;;;;5092972;28;20215;-61
2023/05/08 07:58:59;;;;;;;0.00;0.00;;;16.10;99.90;;;;;;5093088;28;20185;-62
2023/05/08 08:01:24;;;;;;;0.00;0.00;;;16.20;99.90;;;;;;5093106;28;20176;-61
2023/05/08 08:03:50;;;;;;;0.00;0.00;;;16.20;99.90;;;;;;5092942;28;20184;-61
2023/05/08 08:06:17;;;;;;;0.00;0.00;;;16.30;99.90;;;;;;5092929;28;20272;-61
2023/05/08 08:08:42;;;;;;;0.10;0.10;;;16.30;99.90;;;;;;5093178;28;20263;-61
2023/05/08 08:11:08;;;;;;;0.00;0.00;;;16.40;99.90;;;;;;5092936;28;20592;-62
2023/05/08 08:13:34;;;;;;;0.10;0.10;;;16.40;99.90;;;;;;5093033;28;20180;-62
2023/05/08 08:16:02;;;;;;;0.00;0.00;;;16.40;99.90;;;;;;5092758;28;20620;-61
2023/05/08 08:18:28;;;;;;;0.10;0.10;;;16.50;99.90;;;;;;5092795;28;20586;-62
2023/05/08 08:20:53;;;;;;;0.00;0.00;;;16.60;99.90;;;;;;5092743;28;20208;-62
2023/05/08 08:23:19;;;;;;;0.10;0.10;;;16.60;99.90;;;;;;5092416;28;20238;-62
2023/05/08 08:25:44;;;;;;;0.00;0.00;;;16.70;99.90;;;;;;5092616;28;20192;-61
2023/05/08 08:28:10;;;;;;;0.00;0.00;;;16.90;99.90;;;;;;5092460;28;20160;-62
2023/05/08 08:30:35;;;;;;;0.00;0.00;;;16.90;99.90;;;;;;5092627;28;20183;-62
2023/05/08 08:33:02;;;;;;;0.00;0.00;;;17.00;99.90;;;;;;5092472;28;20519;-62
2023/05/08 08:35:29;;;;;;;0.00;0.00;;;17.00;99.90;;;;;;5092364;28;20865;-62
2023/05/08 08:37:55;;;;;;;0.00;0.00;;;17.00;99.90;;;;;;5092485;28;20180;-62
2023/05/08 08:40:21;;;;;;;0.03;0.03;;;17.10;99.90;;;;;;5091259;28;20179;-62
2023/05/08 08:42:46;;;;;;;0.00;0.00;;;17.10;99.90;;;;;;5092287;28;20555;-62
2023/05/08 08:45:12;;;;;;;0.00;0.00;;;17.00;99.90;;;;;;5090820;28;20190;-62
2023/05/08 08:47:41;;;;;;;0.00;0.00;;;17.00;99.90;;;;;;5092372;28;20172;-62
2023/05/08 08:50:08;;;;;;;0.00;0.00;;;16.90;99.90;;;;;;5091321;28;20202;-61
2023/05/08 08:52:46;;;;;;;0.00;0.00;;;16.90;99.90;;;;;;5092276;28;20172;-61
2023/05/08 08:55:15;;;;;;;0.00;0.00;;;16.80;99.90;;;;;;5091855;28;20287;-61
2023/05/08 08:57:53;;;;;;;0.30;0.30;;;16.70;99.90;;;;;;5091910;28;20761;-61
2023/05/08 09:00:21;;;;;;;0.20;0.20;;;16.70;99.90;;;;;;5091998;28;20179;-61
2023/05/08 09:02:46;;;;;;;0.00;0.00;;;16.70;99.90;;;;;;5091986;28;20179;-61
2023/05/08 09:05:13;;;;;;;0.00;0.00;;;16.80;99.90;;;;;;5091795;28;20180;-61
2023/05/08 09:07:40;;;;;;;0.03;0.03;;;16.80;99.90;;;;;;5091958;28;20183;-61
2023/05/08 09:10:06;;;;;;;0.00;0.00;;;16.80;99.90;;;;;;5091849;28;20710;-61
2023/05/08 09:12:32;;;;;;;0.00;0.00;;;16.70;99.90;;;;;;5091857;28;20705;-61
2023/05/08 09:14:57;;;;;;;0.00;0.00;;;16.70;99.90;;;;;;5091646;28;20210;-61
2023/05/08 09:17:23;;;;;;;0.00;0.00;;;16.60;99.90;;;;;;5091776;28;20255;-62
2023/05/08 09:19:49;;;;;;;0.00;0.00;;;16.50;99.90;;;;;;5091563;28;20172;-61
2023/05/08 09:22:14;;;;;;;0.00;0.00;;;16.50;99.90;;;;;;5091636;28;20204;-61
2023/05/08 09:24:54;;;;;;;0.00;0.00;;;16.40;99.90;;;;;;5091554;28;20228;-62
2023/05/08 09:27:25;;;;;;;0.00;0.00;;;16.40;99.90;;;;;;5091645;28;20176;-61
2023/05/08 09:30:07;;;;;;;0.00;0.00;;;16.40;99.90;;;;;;5091470;28;20226;-62
2023/05/08 09:32:35;;;;;;;0.10;0.10;;;16.30;99.90;;;;;;5091575;28;20523;-61
2023/05/08 09:35:01;;;;;;;0.00;0.00;;;16.30;99.90;;;;;;5091447;28;20191;-61
2023/05/08 09:37:27;;;;;;;0.43;0.05;;;16.30;99.90;;;;;;5091539;28;20180;-62
2023/05/08 09:39:54;;;;;;;0.00;0.00;;;16.30;99.90;;;;;;5091423;28;20229;-62
2023/05/08 09:42:20;;;;;;;0.20;0.20;;;16.40;99.90;;;;;;5091493;28;20270;-62
2023/05/08 09:44:50;;;;;;;0.00;0.00;;;16.40;99.90;;;;;;5091596;28;20543;-62
2023/05/08 09:47:23;;;;;;;0.00;0.00;;;16.50;99.90;;;;;;5091345;28;20179;-61
2023/05/08 09:50:03;;;;;;;0.10;0.10;;;16.50;99.90;;;;;;5091359;28;20204;-61
2023/05/08 09:52:30;;;;;;;0.00;0.00;;;16.50;99.90;;;;;;5091346;28;20233;-61
2023/05/08 09:55:06;;;;;;;0.22;0.22;;;16.50;99.90;;;;;;5091312;28;20183;-61
2023/05/08 09:57:35;;;;;;;0.00;0.00;;;16.60;99.90;;;;;;5091406;28;20179;-61
2023/05/08 10:00:02;;;;;;;0.08;0.08;;;16.70;99.90;;;;;;5091894;28;20200;-62
2023/05/08 10:02:28;;;;;;;0.03;0.03;;;16.80;99.90;;;;;;5095427;28;20179;-62
2023/05/08 10:04:53;;;;;;;0.00;0.00;;;17.00;99.90;;;;;;5095203;28;20176;-61
2023/05/08 10:07:30;;;;;;;0.10;0.10;;;17.10;99.90;;;;;;5095376;28;20176;-61
2023/05/08 10:10:00;;;;;;;0.03;0.03;;;17.20;99.90;;;;;;5095313;28;20247;-61
2023/05/08 10:12:27;;;;;;;0.03;0.03;;;17.40;99.90;;;;;;5094070;28;20184;-61
2023/05/08 10:14:53;;;;;;;1.17;0.38;;;17.50;99.90;;;;;;5094911;28;20255;-61
2023/05/08 10:17:30;;;;;;;0.00;0.00;;;17.60;99.90;;;;;;5095301;28;20274;-62
2023/05/08 10:20:01;;;;;;;0.55;0.55;;;17.70;99.90;;;;;;5095115;28;20662;-61
2023/05/08 10:22:27;;;;;;;0.00;0.00;;;17.80;99.90;;;;;;5095192;28;20580;-62
2023/05/08 10:24:57;;;;;;;0.00;0.00;;;17.80;99.90;;;;;;5094691;28;20256;-62
2023/05/08 10:27:34;;;;;;;0.00;0.00;;;17.90;99.90;;;;;;5095118;28;20172;-62
2023/05/08 10:30:03;;;;;;;0.00;0.00;;;17.90;99.90;;;;;;5094943;28;20171;-61
2023/05/08 10:32:36;;;;;;;0.00;0.00;;;18.00;99.90;;;;;;5094968;28;20180;-62
2023/05/08 10:35:02;;;;;;;0.00;0.00;;;18.10;99.90;;;;;;5094790;28;20199;-62
2023/05/08 10:37:29;;;;;;;0.22;0.22;;;18.10;99.90;;;;;;5094930;28;20188;-62
2023/05/08 10:39:56;;;;;;;0.30;0.30;;;18.00;99.90;;;;;;5094789;28;20176;-61
2023/05/08 10:42:22;;;;;;;0.00;0.00;;;18.00;99.90;;;;;;5094591;28;20626;-62
2023/05/08 10:44:49;;;;;;;0.00;0.00;;;18.00;99.90;;;;;;5094612;28;20654;-61
2023/05/08 10:47:21;;;;;;;0.00;0.00;;;18.10;99.90;;;;;;5094546;28;20513;-62
2023/05/08 10:50:04;;;;;;;0.00;0.00;;;18.10;99.90;;;;;;5094453;28;20666;-62
2023/05/08 10:52:40;;;;;;;0.38;0.38;;;18.10;99.90;;;;;;5094413;28;20175;-61
2023/05/08 10:55:20;;;;;;;0.00;0.00;;;18.10;99.90;;;;;;5094447;28;20176;-62
2023/05/08 10:58:05;;;;;;;0.20;0.20;;;18.10;99.90;;;;;;5094409;28;20271;-62
2023/05/08 11:00:55;;;;;;;0.00;0.00;;;18.10;99.90;;;;;;5094354;28;20172;-62
2023/05/08 11:03:31;;;;;;;0.30;0.10;;;18.10;99.90;;;;;;5094079;28;20688;-62
2023/05/08 11:05:58;;;;;;;0.00;0.00;;;18.20;99.90;;;;;;5094163;28;20259;-62
2023/05/08 11:08:27;;;;;;;0.00;0.00;;;18.30;99.90;;;;;;5094203;28;20708;-62
2023/05/08 11:10:59;;;;;;;0.38;0.38;;;18.40;99.90;;;;;;5093937;28;20552;-61
2023/05/08 11:13:29;;;;;;;0.00;0.00;;;18.50;99.90;;;;;;5093157;28;20207;-62
2023/05/08 11:15:55;;;;;;;0.00;0.00;;;18.60;99.90;;;;;;5093902;28;20208;-62
2023/05/08 11:18:21;;;;;;;0.00;0.00;;;18.50;99.90;;;;;;5093954;28;20259;-62
2023/05/08 11:21:05;;;;;;;0.13;0.13;;;18.50;99.90;;;;;;5093998;28;20199;-62
2023/05/08 11:23:35;;;;;;;0.00;0.00;;;18.50;99.90;;;;;;5092393;28;20310;-62
2023/05/08 11:26:05;;;;;;;0.10;0.10;;;18.60;99.90;;;;;;5093693;28;20234;-62
2023/05/08 11:28:55;;;;;;;0.00;0.00;;;18.60;99.90;;;;;;5093793;28;20564;-62
2023/05/08 11:31:21;;;;;;;0.03;0.03;;;18.60;99.90;;;;;;5093767;28;20172;-62
2023/05/08 11:33:46;;;;;;;0.00;0.00;;;18.60;99.90;;;;;;5093807;28;20268;-62
2023/05/08 11:36:19;;;;;;;0.00;0.00;;;18.60;99.90;;;;;;5093279;28;20273;-62
2023/05/08 11:39:07;;;;;;;0.80;0.22;;;18.60;99.90;;;;;;5093778;28;20194;-62
2023/05/08 11:41:33;;;;;;;0.00;0.00;;;18.70;99.90;;;;;;5093523;28;20658;-62
2023/05/08 11:44:03;;;;;;;0.00;0.00;;;18.70;99.90;;;;;;5093438;28;20172;-61
2023/05/08 11:46:52;;;;;;;0.10;0.10;;;18.80;99.90;;;;;;5093375;28;20168;-62
2023/05/08 11:49:20;;;;;;;0.00;0.00;;;18.90;99.90;;;;;;5093292;28;20649;-62
2023/05/08 11:51:48;;;;;;;0.00;0.00;;;18.90;99.90;;;;;;5093393;28;20176;-62
2023/05/08 11:54:17;;;;;;;0.00;0.00;;;19.10;99.90;;;;;;5093287;28;20168;-62
2023/05/08 11:56:44;;;;;;;0.00;0.00;;;19.10;99.90;;;;;;5093276;28;20265;-62
2023/05/08 11:59:10;;;;;;;0.13;0.13;;;19.20;99.90;;;;;;5093063;28;20176;-62
2023/05/08 12:01:36;;;;;;;0.00;0.00;;;19.20;99.90;;;;;;5093131;28;20171;-62
2023/05/08 12:04:10;;;;;;;0.10;0.10;;;19.20;99.90;;;;;;5093036;28;20253;-62
2023/05/08 12:06:37;;;;;;;0.00;0.00;;;19.20;99.90;;;;;;5093040;28;20206;-62
2023/05/08 12:09:11;;;;;;;0.13;0.13;;;19.10;99.90;;;;;;5092992;28;20179;-62
2023/05/08 12:11:38;;;;;;;0.00;0.00;;;19.10;99.90;;;;;;5093028;28;20267;-62
2023/05/08 12:14:03;;;;;;;0.00;0.00;;;19.20;99.90;;;;;;5092903;28;20180;-61
2023/05/08 12:16:29;;;;;;;0.00;0.00;;;19.20;99.90;;;;;;5092808;28;20732;-62
2023/05/08 12:18:56;;;;;;;0.00;0.00;;;19.30;99.90;;;;;;5092589;28;20611;-62
2023/05/08 12:21:22;;;;;;;0.00;0.00;;;19.40;99.90;;;;;;5092730;28;20275;-61
2023/05/08 12:23:48;;;;;;;0.00;0.00;;;19.50;99.90;;;;;;5092511;28;20302;-62
2023/05/08 12:26:14;;;;;;;0.00;0.00;;;19.50;99.90;;;;;;5092435;28;20184;-62
2023/05/08 12:28:43;;;;;;;0.00;0.00;;;19.50;99.90;;;;;;5092906;28;20611;-62
2023/05/08 12:31:09;;;;;;;0.10;0.10;;;19.60;99.90;;;;;;5092638;28;20587;-61
2023/05/08 12:33:34;;;;;;;0.00;0.00;;;19.60;99.90;;;;;;5092612;28;20176;-61
2023/05/08 12:36:01;;;;;;;0.00;0.00;;;19.60;99.90;;;;;;5092315;28;20214;-61
2023/05/08 12:38:26;;;;;;;0.10;0.10;;;19.60;99.90;;;;;;5092479;28;20206;-61
2023/05/08 12:40:54;;;;;;;0.00;0.00;;;19.60;99.90;;;;;;5092280;28;20180;-61
2023/05/08 12:43:20;;;;;;;0.00;0.00;;;19.60;99.90;;;;;;5092364;28;20710;-61
2023/05/08 12:45:49;;;;;;;0.00;0.00;;;19.60;99.90;;;;;;5092481;28;20224;-62
2023/05/08 12:48:14;;;;;;;0.05;0.05;;;19.60;99.90;;;;;;5092143;28;20623;-62
2023/05/08 12:50:43;;;;;;;0.10;0.10;;;19.60;99.90;;;;;;5092142;28;20207;-61
2023/05/08 12:53:16;;;;;;;0.00;0.00;;;19.70;99.90;;;;;;5092208;28;20247;-62
2023/05/08 12:56:03;;;;;;;0.00;0.00;;;19.70;99.90;;;;;;5092193;28;20215;-61